Time,TemperatureF,DewpointF,PressureIn,WindDirection,WindDirectionDegrees,WindSpeedMPH,WindSpeedGustMPH,Humidity,HourlyPrecipIn,Conditions,Clouds,dailyrainin,SoftwareType,DateUTC
2013-07-09 00:00:00,67.3,55.2,29.96,NE,55,2.0,4.0,65,0.00,,SKC,0.00,VWS V13.01,2013-07-09 07:00:00,
2013-07-09 00:10:00,66.9,55.2,29.96,NE,48,0.0,6.0,66,0.00,,SKC,0.00,VWS V13.01,2013-07-09 07:10:00,
2013-07-09 00:20:00,66.6,55.7,29.96,NNE,31,2.0,4.0,68,0.00,,SKC,0.00,VWS V13.01,2013-07-09 07:20:00,
2013-07-09 00:30:00,66.4,55.9,29.96,NNE,31,0.0,4.0,69,0.00,,SKC,0.00,VWS V13.01,2013-07-09 07:30:00,
2013-07-09 00:40:00,66.4,55.9,29.96,NNE,31,0.0,3.0,69,0.00,,SKC,0.00,VWS V13.01,2013-07-09 07:40:00,
2013-07-09 01:00:00,65.6,55.2,29.96,North,8,0.0,3.0,69,0.00,,SKC,0.00,VWS V13.01,2013-07-09 08:00:00,
2013-07-09 01:10:00,64.3,54.7,29.96,ENE,67,0.0,4.0,71,0.00,,SKC,0.00,VWS V13.01,2013-07-09 08:10:00,
2013-07-09 01:20:00,63.4,54.6,29.96,ENE,67,0.0,2.0,73,0.00,,SKC,0.00,VWS V13.01,2013-07-09 08:20:00,
2013-07-09 01:30:00,62.9,54.9,29.96,ENE,67,0.0,1.0,75,0.00,,SKC,0.00,VWS V13.01,2013-07-09 08:30:00,
2013-07-09 01:40:00,62.6,54.6,29.96,ENE,67,0.0,3.0,75,0.00,,SKC,0.00,VWS V13.01,2013-07-09 08:40:00,
2013-07-09 01:50:00,62.0,54.7,29.96,ENE,67,0.0,3.0,77,0.00,,SKC,0.00,VWS V13.01,2013-07-09 08:50:00,
2013-07-09 02:00:00,61.3,54.4,29.96,East,96,0.0,4.0,78,0.00,,SKC,0.00,VWS V13.01,2013-07-09 09:00:00,
2013-07-09 02:10:00,60.9,54.0,29.96,ENE,70,2.0,4.0,78,0.00,,SKC,0.00,VWS V13.01,2013-07-09 09:10:00,
2013-07-09 02:20:00,60.4,53.9,29.96,ESE,103,0.0,4.0,79,0.00,,SKC,0.00,VWS V13.01,2013-07-09 09:20:00,
2013-07-09 02:30:00,60.1,53.9,29.96,ENE,73,2.0,4.0,80,0.00,,SKC,0.00,VWS V13.01,2013-07-09 09:30:00,
2013-07-09 02:40:00,59.8,53.6,29.96,ENE,73,3.0,3.0,80,0.00,,SKC,0.00,VWS V13.01,2013-07-09 09:40:00,
2013-07-09 02:50:00,59.5,53.3,29.96,East,93,0.0,4.0,80,0.00,,SKC,0.00,VWS V13.01,2013-07-09 09:50:00,
2013-07-09 03:00:00,59.3,53.5,29.97,East,93,0.0,3.0,81,0.00,,SKC,0.00,VWS V13.01,2013-07-09 10:00:00,
2013-07-09 03:10:00,59.0,53.2,29.97,East,95,0.0,3.0,81,0.00,,SKC,0.00,VWS V13.01,2013-07-09 10:10:00,
2013-07-09 03:20:00,58.9,53.1,29.97,East,95,0.0,2.0,81,0.00,,SKC,0.00,VWS V13.01,2013-07-09 10:20:00,
2013-07-09 03:30:00,58.6,53.1,29.97,East,94,0.0,1.0,82,0.00,,SKC,0.00,VWS V13.01,2013-07-09 10:30:00,
2013-07-09 03:40:00,58.3,52.8,29.97,East,94,0.0,0.0,82,0.00,,SKC,0.00,VWS V13.01,2013-07-09 10:40:00,
2013-07-09 03:50:00,58.0,52.5,29.97,East,101,0.0,4.0,82,0.00,,SKC,0.00,VWS V13.01,2013-07-09 10:50:00,
2013-07-09 04:00:00,57.6,52.2,29.97,East,101,0.0,2.0,82,0.00,,SKC,0.00,VWS V13.01,2013-07-09 11:00:00,
2013-07-09 04:10:00,57.3,52.2,29.97,ESE,102,0.0,2.0,83,0.00,,SKC,0.00,VWS V13.01,2013-07-09 11:10:00,
2013-07-09 04:20:00,57.2,52.1,29.97,ESE,102,2.0,2.0,83,0.00,,SKC,0.00,VWS V13.01,2013-07-09 11:20:00,
2013-07-09 04:30:00,57.0,51.9,29.97,ESE,102,0.0,2.0,83,0.00,,SKC,0.00,VWS V13.01,2013-07-09 11:30:00,
2013-07-09 04:40:00,56.7,51.6,29.97,East,100,2.0,3.0,83,0.00,,SKC,0.00,VWS V13.01,2013-07-09 11:40:00,
2013-07-09 04:50:00,56.7,51.9,29.97,East,96,2.0,3.0,84,0.00,,SKC,0.00,VWS V13.01,2013-07-09 11:50:00,
2013-07-09 05:00:00,56.5,51.7,29.97,East,84,2.0,3.0,84,0.00,,SKC,0.00,VWS V13.01,2013-07-09 12:00:00,
2013-07-09 05:10:00,56.2,51.4,29.97,East,98,3.0,5.0,84,0.00,,SKC,0.00,VWS V13.01,2013-07-09 12:10:00,
2013-07-09 05:20:00,55.7,51.3,29.97,ENE,68,3.0,5.0,85,0.00,,SKC,0.00,VWS V13.01,2013-07-09 12:20:00,
2013-07-09 05:30:00,55.4,51.0,29.98,East,83,3.0,5.0,85,0.00,,SKC,0.00,VWS V13.01,2013-07-09 12:30:00,
2013-07-09 05:40:00,55.3,50.9,29.98,East,82,0.0,4.0,85,0.00,,SKC,0.00,VWS V13.01,2013-07-09 12:40:00,
2013-07-09 05:50:00,55.3,51.2,29.98,East,99,0.0,3.0,86,0.00,,SKC,0.00,VWS V13.01,2013-07-09 12:50:00,
2013-07-09 06:00:00,55.4,51.3,29.98,East,85,2.0,4.0,86,0.00,,SKC,0.00,VWS V13.01,2013-07-09 13:00:00,
2013-07-09 06:10:00,55.6,51.2,29.98,East,86,0.0,4.0,85,0.00,,SKC,0.00,VWS V13.01,2013-07-09 13:10:00,
2013-07-09 06:20:00,56.0,51.6,29.98,East,86,0.0,0.0,85,0.00,,SKC,0.00,VWS V13.01,2013-07-09 13:20:00,
2013-07-09 06:30:00,56.3,51.5,29.98,East,86,0.0,1.0,84,0.00,,SKC,0.00,VWS V13.01,2013-07-09 13:30:00,
2013-07-09 06:40:00,56.9,52.1,29.98,East,86,0.0,2.0,84,0.00,,SKC,0.00,VWS V13.01,2013-07-09 13:40:00,
2013-07-09 06:50:00,57.5,52.4,29.98,East,86,1.0,3.0,83,0.00,,SKC,0.00,VWS V13.01,2013-07-09 13:50:00,
2013-07-09 07:00:00,57.8,52.0,29.99,East,88,0.0,5.0,81,0.00,,SKC,0.00,VWS V13.01,2013-07-09 14:00:00,
2013-07-09 07:10:00,58.1,52.0,29.99,East,94,0.0,5.0,80,0.00,,SKC,0.00,VWS V13.01,2013-07-09 14:10:00,
2013-07-09 07:20:00,58.7,51.9,29.99,East,96,2.0,5.0,78,0.00,,SKC,0.00,VWS V13.01,2013-07-09 14:20:00,
2013-07-09 07:30:00,59.5,52.3,29.99,East,101,0.0,4.0,77,0.00,,SKC,0.00,VWS V13.01,2013-07-09 14:30:00,
2013-07-09 07:40:00,60.4,52.5,29.99,East,100,0.0,3.0,75,0.00,,SKC,0.00,VWS V13.01,2013-07-09 14:40:00,
2013-07-09 07:50:00,61.6,52.9,29.99,East,101,0.0,1.0,73,0.00,,SKC,0.00,VWS V13.01,2013-07-09 14:50:00,
2013-07-09 08:00:00,62.4,52.9,29.99,East,101,0.0,1.0,71,0.00,,SKC,0.00,VWS V13.01,2013-07-09 15:00:00,
2013-07-09 08:10:00,63.5,53.5,29.99,East,101,0.0,0.0,70,0.00,,SKC,0.00,VWS V13.01,2013-07-09 15:10:00,
2013-07-09 08:20:00,64.7,53.9,30.00,NE,44,0.0,2.0,68,0.00,,SKC,0.00,VWS V13.01,2013-07-09 15:20:00,
2013-07-09 08:30:00,65.8,55.0,30.00,NNE,15,0.0,2.0,68,0.00,,SKC,0.00,VWS V13.01,2013-07-09 15:30:00,
2013-07-09 08:40:00,66.8,55.9,30.00,North,0,0.0,4.0,68,0.00,,SKC,0.00,VWS V13.01,2013-07-09 15:40:00,
2013-07-09 08:50:00,67.4,56.9,30.00,WNW,302,1.0,5.0,69,0.00,,SKC,0.00,VWS V13.01,2013-07-09 15:50:00,
2013-07-09 09:00:00,67.9,57.8,30.00,NW,326,1.0,4.0,70,0.00,,SKC,0.00,VWS V13.01,2013-07-09 16:00:00,
2013-07-09 09:10:00,68.4,57.8,30.00,NW,326,1.0,4.0,69,0.00,,SKC,0.00,VWS V13.01,2013-07-09 16:10:00,
2013-07-09 09:20:00,69.3,57.9,30.00,North,358,0.0,7.0,67,0.00,,SKC,0.00,VWS V13.01,2013-07-09 16:20:00,
2013-07-09 09:30:00,69.8,57.9,30.00,NNE,19,5.0,8.0,66,0.00,,SKC,0.00,VWS V13.01,2013-07-09 16:30:00,
2013-07-09 09:40:00,69.9,58.0,30.00,NW,322,4.0,7.0,66,0.00,,SKC,0.00,VWS V13.01,2013-07-09 16:40:00,
2013-07-09 09:50:00,70.3,57.6,30.00,NE,39,1.0,7.0,64,0.00,,SKC,0.00,VWS V13.01,2013-07-09 16:50:00,
2013-07-09 10:00:00,70.8,58.5,30.00,NNW,345,1.0,7.0,65,0.00,,SKC,0.00,VWS V13.01,2013-07-09 17:00:00,
2013-07-09 10:10:00,71.3,58.5,30.00,North,358,6.0,10.0,64,0.00,,SKC,0.00,VWS V13.01,2013-07-09 17:10:00,
2013-07-09 10:20:00,71.6,58.3,30.00,NNW,335,1.0,9.0,63,0.00,,SKC,0.00,VWS V13.01,2013-07-09 17:20:00,
2013-07-09 10:30:00,72.5,58.3,30.00,North,353,5.0,8.0,61,0.00,,SKC,0.00,VWS V13.01,2013-07-09 17:30:00,
2013-07-09 10:40:00,73.0,58.3,30.00,NNW,331,2.0,9.0,60,0.00,,SKC,0.00,VWS V13.01,2013-07-09 17:40:00,
2013-07-09 10:50:00,73.9,58.2,29.99,West,278,0.0,9.0,58,0.00,,SKC,0.00,VWS V13.01,2013-07-09 17:50:00,
2013-07-09 11:00:00,74.7,58.5,29.99,North,5,5.0,6.0,57,0.00,,SKC,0.00,VWS V13.01,2013-07-09 18:00:00,
2013-07-09 11:10:00,74.7,58.0,29.99,NW,312,4.0,7.0,56,0.00,,SKC,0.00,VWS V13.01,2013-07-09 18:10:00,
2013-07-09 11:20:00,75.8,58.5,29.99,NNW,328,6.0,7.0,55,0.00,,SKC,0.00,VWS V13.01,2013-07-09 18:20:00,
2013-07-09 11:30:00,75.8,58.5,29.99,West,271,2.0,12.0,55,0.00,,SKC,0.00,VWS V13.01,2013-07-09 18:30:00,
2013-07-09 11:40:00,76.8,58.9,29.99,NNW,331,3.0,6.0,54,0.00,,SKC,0.00,VWS V13.01,2013-07-09 18:40:00,
2013-07-09 11:50:00,76.8,58.9,29.98,North,4,5.0,10.0,54,0.00,,SKC,0.00,VWS V13.01,2013-07-09 18:50:00,
2013-07-09 12:00:00,76.7,59.3,29.98,North,358,4.0,11.0,55,0.00,,SKC,0.00,VWS V13.01,2013-07-09 19:00:00,
2013-07-09 12:10:00,77.4,60.0,29.98,NNE,13,3.0,11.0,55,0.00,,SKC,0.00,VWS V13.01,2013-07-09 19:10:00,
2013-07-09 12:30:00,78.6,59.5,29.97,North,358,10.0,13.0,52,0.00,,SKC,0.00,VWS V13.01,2013-07-09 19:30:00,
2013-07-09 12:40:00,78.8,59.2,29.97,North,0,4.0,12.0,51,0.00,,SKC,0.00,VWS V13.01,2013-07-09 19:40:00,
2013-07-09 12:50:00,79.2,59.5,29.97,SW,224,4.0,12.0,51,0.00,,SKC,0.00,VWS V13.01,2013-07-09 19:50:00,
2013-07-09 13:00:00,80.1,59.8,29.97,North,2,6.0,13.0,50,0.00,,SKC,0.00,VWS V13.01,2013-07-09 20:00:00,
2013-07-09 13:10:00,80.5,59.0,29.97,NNW,338,9.0,13.0,48,0.00,,SKC,0.00,VWS V13.01,2013-07-09 20:10:00,
2013-07-09 13:20:00,80.9,59.4,29.97,NNW,344,4.0,11.0,48,0.00,,SKC,0.00,VWS V13.01,2013-07-09 20:20:00,
2013-07-09 13:30:00,81.2,59.1,29.96,NNW,337,6.0,15.0,47,0.00,,SKC,0.00,VWS V13.01,2013-07-09 20:30:00,
2013-07-09 13:40:00,81.8,59.0,29.96,NNW,336,4.0,12.0,46,0.00,,SKC,0.00,VWS V13.01,2013-07-09 20:40:00,
2013-07-09 13:50:00,82.0,59.2,29.96,North,358,4.0,11.0,46,0.00,,SKC,0.00,VWS V13.01,2013-07-09 20:50:00,
2013-07-09 14:00:00,82.0,58.6,29.95,North,354,4.0,14.0,45,0.00,,SKC,0.00,VWS V13.01,2013-07-09 21:00:00,
2013-07-09 14:10:00,82.4,57.7,29.95,North,8,6.0,13.0,43,0.00,,SKC,0.00,VWS V13.01,2013-07-09 21:10:00,
2013-07-09 14:20:00,83.0,58.2,29.95,North,1,6.0,11.0,43,0.00,,SKC,0.00,VWS V13.01,2013-07-09 21:20:00,
2013-07-09 14:30:00,83.2,56.4,29.95,North,352,9.0,12.0,40,0.00,,SKC,0.00,VWS V13.01,2013-07-09 21:30:00,
2013-07-09 14:40:00,83.6,56.8,29.95,North,354,9.0,12.0,40,0.00,,SKC,0.00,VWS V13.01,2013-07-09 21:40:00,
2013-07-09 14:50:00,84.0,55.7,29.94,North,358,11.0,13.0,38,0.00,,SKC,0.00,VWS V13.01,2013-07-09 21:50:00,
2013-07-09 15:00:00,84.5,56.8,29.94,NW,321,5.0,15.0,39,0.00,,SKC,0.00,VWS V13.01,2013-07-09 22:00:00,
2013-07-09 15:10:00,84.9,55.8,29.94,North,358,11.0,12.0,37,0.00,,SKC,0.00,VWS V13.01,2013-07-09 22:10:00,
2013-07-09 15:20:00,85.3,53.8,29.94,North,356,3.0,11.0,34,0.00,,SKC,0.00,VWS V13.01,2013-07-09 22:20:00,
2013-07-09 15:30:00,85.7,53.3,29.93,NNE,16,4.0,13.0,33,0.00,,SKC,0.00,VWS V13.01,2013-07-09 22:30:00,
2013-07-09 15:40:00,86.3,53.0,29.93,North,3,5.0,12.0,32,0.00,,SKC,0.00,VWS V13.01,2013-07-09 22:40:00,
2013-07-09 15:50:00,86.3,53.8,29.93,NNW,344,1.0,13.0,33,0.00,,SKC,0.00,VWS V13.01,2013-07-09 22:50:00,
2013-07-09 16:00:00,86.7,50.7,29.92,North,6,2.0,12.0,29,0.00,,SKC,0.00,VWS V13.01,2013-07-09 23:00:00,
2013-07-09 16:10:00,87.0,52.7,29.92,WNW,303,4.0,14.0,31,0.00,,SKC,0.00,VWS V13.01,2013-07-09 23:10:00,
2013-07-09 16:20:00,87.0,52.7,29.92,North,2,9.0,12.0,31,0.00,,SKC,0.00,VWS V13.01,2013-07-09 23:20:00,
2013-07-09 16:30:00,87.2,52.0,29.92,North,11,4.0,13.0,30,0.00,,SKC,0.00,VWS V13.01,2013-07-09 23:30:00,
2013-07-09 16:40:00,87.2,51.1,29.92,North,358,8.0,15.0,29,0.00,,SKC,0.00,VWS V13.01,2013-07-09 23:40:00,
2013-07-09 16:50:00,87.6,52.4,29.91,NNE,21,9.0,15.0,30,0.00,,SKC,0.00,VWS V13.01,2013-07-09 23:50:00,
2013-07-09 17:00:00,87.6,53.3,29.91,NW,326,4.0,14.0,31,0.00,,SKC,0.00,VWS V13.01,2013-07-10 00:00:00,
2013-07-09 17:10:00,87.8,51.6,29.91,NW,323,6.0,16.0,29,0.00,,SKC,0.00,VWS V13.01,2013-07-10 00:10:00,
2013-07-09 17:20:00,88.0,51.8,29.91,North,4,0.0,12.0,29,0.00,,SKC,0.00,VWS V13.01,2013-07-10 00:20:00,
2013-07-09 17:30:00,88.2,52.0,29.90,NNE,24,2.0,11.0,29,0.00,,SKC,0.00,VWS V13.01,2013-07-10 00:30:00,
2013-07-09 17:40:00,88.2,50.0,29.90,North,11,12.0,16.0,27,0.00,,SKC,0.00,VWS V13.01,2013-07-10 00:40:00,
2013-07-09 17:50:00,88.0,49.9,29.90,North,7,9.0,13.0,27,0.00,,SKC,0.00,VWS V13.01,2013-07-10 00:50:00,
2013-07-09 18:00:00,88.0,51.8,29.89,NNW,345,3.0,14.0,29,0.00,,SKC,0.00,VWS V13.01,2013-07-10 01:00:00,
2013-07-09 18:10:00,88.0,51.8,29.89,North,4,9.0,12.0,29,0.00,,SKC,0.00,VWS V13.01,2013-07-10 01:10:00,
2013-07-09 18:20:00,88.2,51.0,29.89,North,0,9.0,11.0,28,0.00,,SKC,0.00,VWS V13.01,2013-07-10 01:20:00,
2013-07-09 18:30:00,88.0,51.8,29.89,North,0,5.0,12.0,29,0.00,,SKC,0.00,VWS V13.01,2013-07-10 01:30:00,
2013-07-09 18:40:00,87.8,51.6,29.89,North,0,4.0,12.0,29,0.00,,SKC,0.00,VWS V13.01,2013-07-10 01:40:00,
2013-07-09 18:50:00,87.8,49.7,29.89,North,6,3.0,11.0,27,0.00,,SKC,0.00,VWS V13.01,2013-07-10 01:50:00,
2013-07-09 19:00:00,88.0,51.8,29.89,North,0,3.0,11.0,29,0.00,,SKC,0.00,VWS V13.01,2013-07-10 02:00:00,
2013-07-09 19:10:00,87.8,50.7,29.89,North,1,5.0,12.0,28,0.00,,SKC,0.00,VWS V13.01,2013-07-10 02:10:00,
2013-07-09 19:20:00,87.8,50.7,29.89,North,359,6.0,10.0,28,0.00,,SKC,0.00,VWS V13.01,2013-07-10 02:20:00,
2013-07-09 19:30:00,87.8,50.7,29.89,North,352,5.0,10.0,28,0.00,,SKC,0.00,VWS V13.01,2013-07-10 02:30:00,
2013-07-09 19:40:00,87.6,50.5,29.89,North,1,4.0,9.0,28,0.00,,SKC,0.00,VWS V13.01,2013-07-10 02:40:00,
2013-07-09 19:50:00,87.2,51.1,29.89,North,0,3.0,9.0,29,0.00,,SKC,0.00,VWS V13.01,2013-07-10 02:50:00,
2013-07-09 20:00:00,86.5,52.3,29.89,North,358,5.0,9.0,31,0.00,,SKC,0.00,VWS V13.01,2013-07-10 03:00:00,
2013-07-09 20:10:00,85.9,54.3,29.89,North,353,7.0,10.0,34,0.00,,SKC,0.00,VWS V13.01,2013-07-10 03:10:00,
2013-07-09 20:20:00,84.9,57.2,29.89,NW,319,2.0,11.0,39,0.00,,SKC,0.00,VWS V13.01,2013-07-10 03:20:00,
2013-07-09 20:30:00,83.8,58.3,29.90,North,358,6.0,11.0,42,0.00,,SKC,0.00,VWS V13.01,2013-07-10 03:30:00,
2013-07-09 20:40:00,82.8,58.0,29.90,North,358,5.0,9.0,43,0.00,,SKC,0.00,VWS V13.01,2013-07-10 03:40:00,
2013-07-09 20:50:00,81.6,57.6,29.90,NNW,338,1.0,7.0,44,0.00,,SKC,0.00,VWS V13.01,2013-07-10 03:50:00,
2013-07-09 21:00:00,80.7,58.0,29.91,NNW,346,1.0,6.0,46,0.00,,SKC,0.00,VWS V13.01,2013-07-10 04:00:00,
2013-07-09 21:10:00,79.9,58.5,29.91,North,0,1.0,6.0,48,0.00,,SKC,0.00,VWS V13.01,2013-07-10 04:10:00,
2013-07-09 21:20:00,79.0,57.7,29.91,North,357,2.0,9.0,48,0.00,,SKC,0.00,VWS V13.01,2013-07-10 04:20:00,
2013-07-09 21:30:00,78.3,57.6,29.92,NNE,27,1.0,10.0,49,0.00,,SKC,0.00,VWS V13.01,2013-07-10 04:30:00,
2013-07-09 21:40:00,77.4,57.9,29.92,NNE,23,4.0,7.0,51,0.00,,SKC,0.00,VWS V13.01,2013-07-10 04:40:00,
2013-07-09 21:50:00,76.7,57.8,29.92,North,1,1.0,5.0,52,0.00,,SKC,0.00,VWS V13.01,2013-07-10 04:50:00,
2013-07-09 22:00:00,76.0,57.7,29.93,North,7,3.0,6.0,53,0.00,,SKC,0.00,VWS V13.01,2013-07-10 05:00:00,
2013-07-09 22:10:00,75.3,57.5,29.93,North,7,4.0,6.0,54,0.00,,SKC,0.00,VWS V13.01,2013-07-10 05:10:00,
2013-07-09 22:20:00,74.6,56.9,29.93,North,4,3.0,7.0,54,0.00,,SKC,0.00,VWS V13.01,2013-07-10 05:20:00,
2013-07-09 22:30:00,74.0,56.8,29.94,NNE,18,3.0,5.0,55,0.00,,SKC,0.00,VWS V13.01,2013-07-10 05:30:00,
2013-07-09 22:40:00,73.5,56.9,29.94,North,8,2.0,6.0,56,0.00,,SKC,0.00,VWS V13.01,2013-07-10 05:40:00,
2013-07-09 22:50:00,73.0,56.9,29.94,NNE,23,2.0,6.0,57,0.00,,SKC,0.00,VWS V13.01,2013-07-10 05:50:00,
2013-07-09 23:00:00,72.5,56.9,29.94,NNE,33,3.0,4.0,58,0.00,,SKC,0.00,VWS V13.01,2013-07-10 06:00:00,
2013-07-09 23:10:00,72.0,56.9,29.94,NE,37,0.0,3.0,59,0.00,,SKC,0.00,VWS V13.01,2013-07-10 06:10:00,
2013-07-09 23:20:00,71.5,56.4,29.95,North,0,3.0,6.0,59,0.00,,SKC,0.00,VWS V13.01,2013-07-10 06:20:00,
2013-07-09 23:30:00,70.9,56.3,29.94,North,0,3.0,6.0,60,0.00,,SKC,0.00,VWS V13.01,2013-07-10 06:30:00,
2013-07-09 23:40:00,70.6,56.1,29.94,North,6,4.0,5.0,60,0.00,,SKC,0.00,VWS V13.01,2013-07-10 06:40:00,
2013-07-09 23:50:00,70.3,56.2,29.95,North,6,2.0,4.0,61,0.00,,SKC,0.00,VWS V13.01,2013-07-10 06:50:00,